sensor_id;sensor_type;location;lat;lon;timestamp;temperature;humidity
15156;DHT22;7678;50.058;8.306;2023-04-09T00:01:06;7.80;99.90
15156;DHT22;7678;50.058;8.306;2023-04-09T00:03:34;7.80;99.90
15156;DHT22;7678;50.058;8.306;2023-04-09T00:06:03;7.80;99.90
15156;DHT22;7678;50.058;8.306;2023-04-09T00:08:31;7.80;99.90
15156;DHT22;7678;50.058;8.306;2023-04-09T00:11:01;7.80;99.90
15156;DHT22;7678;50.058;8.306;2023-04-09T00:13:29;7.80;99.90
15156;DHT22;7678;50.058;8.306;2023-04-09T00:16:05;7.80;99.90
15156;DHT22;7678;50.058;8.306;2023-04-09T00:18:33;7.80;99.90
15156;DHT22;7678;50.058;8.306;2023-04-09T00:21:01;7.80;99.90
15156;DHT22;7678;50.058;8.306;2023-04-09T00:23:30;7.80;99.90
15156;DHT22;7678;50.058;8.306;2023-04-09T00:25:58;7.80;99.90
15156;DHT22;7678;50.058;8.306;2023-04-09T00:28:31;7.80;99.90
15156;DHT22;7678;50.058;8.306;2023-04-09T00:30:59;7.80;99.90
15156;DHT22;7678;50.058;8.306;2023-04-09T00:33:27;7.90;99.90
15156;DHT22;7678;50.058;8.306;2023-04-09T00:35:55;7.90;99.90
15156;DHT22;7678;50.058;8.306;2023-04-09T00:38:23;7.80;99.90
15156;DHT22;7678;50.058;8.306;2023-04-09T00:40:51;7.80;99.90
15156;DHT22;7678;50.058;8.306;2023-04-09T00:43:21;7.80;99.90
15156;DHT22;7678;50.058;8.306;2023-04-09T00:45:51;7.80;99.90
15156;DHT22;7678;50.058;8.306;2023-04-09T00:48:19;7.80;99.90
15156;DHT22;7678;50.058;8.306;2023-04-09T00:50:48;7.80;99.90
15156;DHT22;7678;50.058;8.306;2023-04-09T00:53:17;7.80;99.90
15156;DHT22;7678;50.058;8.306;2023-04-09T00:55:47;7.80;99.90
15156;DHT22;7678;50.058;8.306;2023-04-09T00:58:17;7.70;99.90
15156;DHT22;7678;50.058;8.306;2023-04-09T01:00:46;7.70;99.90
15156;DHT22;7678;50.058;8.306;2023-04-09T01:03:15;7.70;99.90
15156;DHT22;7678;50.058;8.306;2023-04-09T01:05:52;7.70;99.90
15156;DHT22;7678;50.058;8.306;2023-04-09T01:08:30;7.60;99.90
15156;DHT22;7678;50.058;8.306;2023-04-09T01:11:07;7.60;99.90
15156;DHT22;7678;50.058;8.306;2023-04-09T01:13:41;7.60;99.90
15156;DHT22;7678;50.058;8.306;2023-04-09T01:16:15;7.60;99.90
15156;DHT22;7678;50.058;8.306;2023-04-09T01:18:49;7.60;99.90
15156;DHT22;7678;50.058;8.306;2023-04-09T01:21:21;7.60;99.90
15156;DHT22;7678;50.058;8.306;2023-04-09T01:23:58;7.60;99.90
15156;DHT22;7678;50.058;8.306;2023-04-09T01:26:40;7.50;99.90
15156;DHT22;7678;50.058;8.306;2023-04-09T01:29:12;7.50;99.90
15156;DHT22;7678;50.058;8.306;2023-04-09T01:31:43;7.50;99.90
15156;DHT22;7678;50.058;8.306;2023-04-09T01:34:12;7.40;99.90
15156;DHT22;7678;50.058;8.306;2023-04-09T01:36:43;7.40;99.90
15156;DHT22;7678;50.058;8.306;2023-04-09T01:39:11;7.30;99.90
15156;DHT22;7678;50.058;8.306;2023-04-09T01:41:40;7.20;99.90
15156;DHT22;7678;50.058;8.306;2023-04-09T01:44:12;7.10;99.90
15156;DHT22;7678;50.058;8.306;2023-04-09T01:46:40;6.80;99.90
15156;DHT22;7678;50.058;8.306;2023-04-09T01:49:11;6.70;99.90
15156;DHT22;7678;50.058;8.306;2023-04-09T01:51:39;6.50;99.90
15156;DHT22;7678;50.058;8.306;2023-04-09T01:54:08;6.40;99.90
15156;DHT22;7678;50.058;8.306;2023-04-09T01:56:40;6.30;99.90
15156;DHT22;7678;50.058;8.306;2023-04-09T01:59:08;6.20;99.90
15156;DHT22;7678;50.058;8.306;2023-04-09T02:01:43;6.10;99.90
15156;DHT22;7678;50.058;8.306;2023-04-09T02:04:16;6.00;99.90
15156;DHT22;7678;50.058;8.306;2023-04-09T02:06:54;5.90;99.90
15156;DHT22;7678;50.058;8.306;2023-04-09T02:09:25;5.70;99.90
15156;DHT22;7678;50.058;8.306;2023-04-09T02:11:57;5.60;99.90
15156;DHT22;7678;50.058;8.306;2023-04-09T02:14:30;5.60;99.90
15156;DHT22;7678;50.058;8.306;2023-04-09T02:17:00;5.50;99.90
15156;DHT22;7678;50.058;8.306;2023-04-09T02:19:37;5.40;99.90
15156;DHT22;7678;50.058;8.306;2023-04-09T02:22:06;5.30;99.90
15156;DHT22;7678;50.058;8.306;2023-04-09T02:24:34;5.30;99.90
15156;DHT22;7678;50.058;8.306;2023-04-09T02:27:03;5.40;99.90
15156;DHT22;7678;50.058;8.306;2023-04-09T02:29:32;5.60;99.90
15156;DHT22;7678;50.058;8.306;2023-04-09T02:32:01;5.60;99.90
15156;DHT22;7678;50.058;8.306;2023-04-09T02:34:30;5.60;99.90
15156;DHT22;7678;50.058;8.306;2023-04-09T02:36:58;5.60;99.90
15156;DHT22;7678;50.058;8.306;2023-04-09T02:39:26;5.50;99.90
15156;DHT22;7678;50.058;8.306;2023-04-09T02:41:56;5.40;99.90
15156;DHT22;7678;50.058;8.306;2023-04-09T02:44:24;5.30;99.90
15156;DHT22;7678;50.058;8.306;2023-04-09T02:46:52;5.30;99.90
15156;DHT22;7678;50.058;8.306;2023-04-09T02:49:22;5.20;99.90
15156;DHT22;7678;50.058;8.306;2023-04-09T02:51:50;5.20;99.90
15156;DHT22;7678;50.058;8.306;2023-04-09T02:54:18;5.30;99.90
15156;DHT22;7678;50.058;8.306;2023-04-09T02:56:46;5.20;99.90
15156;DHT22;7678;50.058;8.306;2023-04-09T02:59:14;5.10;99.90
15156;DHT22;7678;50.058;8.306;2023-04-09T03:01:42;5.00;99.90
15156;DHT22;7678;50.058;8.306;2023-04-09T03:04:10;5.10;99.90
15156;DHT22;7678;50.058;8.306;2023-04-09T03:06:40;5.10;99.90
15156;DHT22;7678;50.058;8.306;2023-04-09T03:09:08;5.10;99.90
15156;DHT22;7678;50.058;8.306;2023-04-09T03:11:36;5.00;99.90
15156;DHT22;7678;50.058;8.306;2023-04-09T03:14:04;5.00;99.90
15156;DHT22;7678;50.058;8.306;2023-04-09T03:16:32;4.90;99.90
15156;DHT22;7678;50.058;8.306;2023-04-09T03:19:00;4.90;99.90
15156;DHT22;7678;50.058;8.306;2023-04-09T03:21:28;4.80;99.90
15156;DHT22;7678;50.058;8.306;2023-04-09T03:24:00;4.80;99.90
15156;DHT22;7678;50.058;8.306;2023-04-09T03:26:29;4.70;99.90
15156;DHT22;7678;50.058;8.306;2023-04-09T03:29:02;4.70;99.90
15156;DHT22;7678;50.058;8.306;2023-04-09T03:31:30;4.60;99.90
15156;DHT22;7678;50.058;8.306;2023-04-09T03:33:58;4.50;99.90
15156;DHT22;7678;50.058;8.306;2023-04-09T03:36:27;4.50;99.90
15156;DHT22;7678;50.058;8.306;2023-04-09T03:38:55;4.50;99.90
15156;DHT22;7678;50.058;8.306;2023-04-09T03:41:25;4.40;99.90
15156;DHT22;7678;50.058;8.306;2023-04-09T03:43:57;4.30;99.90
15156;DHT22;7678;50.058;8.306;2023-04-09T03:46:25;4.30;99.90
15156;DHT22;7678;50.058;8.306;2023-04-09T03:48:53;4.30;99.90
15156;DHT22;7678;50.058;8.306;2023-04-09T03:51:21;4.40;99.90
15156;DHT22;7678;50.058;8.306;2023-04-09T03:53:51;4.30;99.90
15156;DHT22;7678;50.058;8.306;2023-04-09T03:56:19;4.20;99.90
15156;DHT22;7678;50.058;8.306;2023-04-09T03:58:49;4.20;99.90
15156;DHT22;7678;50.058;8.306;2023-04-09T04:01:17;4.20;99.90
15156;DHT22;7678;50.058;8.306;2023-04-09T04:03:46;4.10;99.90
15156;DHT22;7678;50.058;8.306;2023-04-09T04:06:14;4.10;99.90
15156;DHT22;7678;50.058;8.306;2023-04-09T04:08:42;4.10;99.90
15156;DHT22;7678;50.058;8.306;2023-04-09T04:11:11;4.00;99.90
15156;DHT22;7678;50.058;8.306;2023-04-09T04:13:39;3.90;99.90
15156;DHT22;7678;50.058;8.306;2023-04-09T04:16:09;3.90;99.90
15156;DHT22;7678;50.058;8.306;2023-04-09T04:18:37;4.00;99.90
15156;DHT22;7678;50.058;8.306;2023-04-09T04:21:11;4.00;99.90
15156;DHT22;7678;50.058;8.306;2023-04-09T04:23:39;4.00;99.90
15156;DHT22;7678;50.058;8.306;2023-04-09T04:26:08;4.00;99.90
15156;DHT22;7678;50.058;8.306;2023-04-09T04:28:39;4.00;99.90
15156;DHT22;7678;50.058;8.306;2023-04-09T04:31:09;4.00;99.90
15156;DHT22;7678;50.058;8.306;2023-04-09T04:33:39;3.90;99.90
15156;DHT22;7678;50.058;8.306;2023-04-09T04:36:08;4.00;99.90
15156;DHT22;7678;50.058;8.306;2023-04-09T04:38:38;4.00;99.90
15156;DHT22;7678;50.058;8.306;2023-04-09T04:41:07;4.00;99.90
15156;DHT22;7678;50.058;8.306;2023-04-09T04:43:35;4.00;99.90
15156;DHT22;7678;50.058;8.306;2023-04-09T04:46:07;4.00;99.90
15156;DHT22;7678;50.058;8.306;2023-04-09T04:48:35;4.00;99.90
15156;DHT22;7678;50.058;8.306;2023-04-09T04:51:08;4.00;99.90
15156;DHT22;7678;50.058;8.306;2023-04-09T04:53:36;4.00;99.90
15156;DHT22;7678;50.058;8.306;2023-04-09T04:56:04;4.10;99.90
15156;DHT22;7678;50.058;8.306;2023-04-09T04:58:32;3.90;99.90
15156;DHT22;7678;50.058;8.306;2023-04-09T05:01:00;3.80;99.90
15156;DHT22;7678;50.058;8.306;2023-04-09T05:03:30;3.70;99.90
15156;DHT22;7678;50.058;8.306;2023-04-09T05:05:58;3.80;99.90
15156;DHT22;7678;50.058;8.306;2023-04-09T05:08:26;3.80;99.90
15156;DHT22;7678;50.058;8.306;2023-04-09T05:10:55;3.90;99.90
15156;DHT22;7678;50.058;8.306;2023-04-09T05:13:25;3.90;99.90
15156;DHT22;7678;50.058;8.306;2023-04-09T05:15:53;3.90;99.90
15156;DHT22;7678;50.058;8.306;2023-04-09T05:18:22;4.00;99.90
15156;DHT22;7678;50.058;8.306;2023-04-09T05:20:51;4.00;99.90
15156;DHT22;7678;50.058;8.306;2023-04-09T05:23:19;4.00;99.90
15156;DHT22;7678;50.058;8.306;2023-04-09T05:25:48;4.20;99.90
15156;DHT22;7678;50.058;8.306;2023-04-09T05:28:16;4.20;99.90
15156;DHT22;7678;50.058;8.306;2023-04-09T05:30:52;4.20;99.90
15156;DHT22;7678;50.058;8.306;2023-04-09T05:33:20;4.20;99.90
15156;DHT22;7678;50.058;8.306;2023-04-09T05:35:48;4.20;99.90
15156;DHT22;7678;50.058;8.306;2023-04-09T05:38:18;4.30;99.90
15156;DHT22;7678;50.058;8.306;2023-04-09T05:40:46;4.50;99.90
15156;DHT22;7678;50.058;8.306;2023-04-09T05:43:14;4.50;99.90
15156;DHT22;7678;50.058;8.306;2023-04-09T05:45:43;4.60;99.90
15156;DHT22;7678;50.058;8.306;2023-04-09T05:48:11;4.60;99.90
15156;DHT22;7678;50.058;8.306;2023-04-09T05:50:39;4.80;99.90
15156;DHT22;7678;50.058;8.306;2023-04-09T05:53:22;4.80;99.90
15156;DHT22;7678;50.058;8.306;2023-04-09T05:55:50;4.90;99.90
15156;DHT22;7678;50.058;8.306;2023-04-09T05:58:18;5.00;99.90
15156;DHT22;7678;50.058;8.306;2023-04-09T06:00:47;5.20;99.90
15156;DHT22;7678;50.058;8.306;2023-04-09T06:03:17;5.30;99.90
15156;DHT22;7678;50.058;8.306;2023-04-09T06:05:45;5.40;99.90
15156;DHT22;7678;50.058;8.306;2023-04-09T06:08:14;5.50;99.90
15156;DHT22;7678;50.058;8.306;2023-04-09T06:10:43;5.60;99.90
15156;DHT22;7678;50.058;8.306;2023-04-09T06:13:12;5.70;99.90
15156;DHT22;7678;50.058;8.306;2023-04-09T06:15:40;5.80;99.90
15156;DHT22;7678;50.058;8.306;2023-04-09T06:18:08;5.90;99.90
15156;DHT22;7678;50.058;8.306;2023-04-09T06:20:36;6.10;99.90
15156;DHT22;7678;50.058;8.306;2023-04-09T06:23:04;6.20;99.90
15156;DHT22;7678;50.058;8.306;2023-04-09T06:25:33;6.40;99.90
15156;DHT22;7678;50.058;8.306;2023-04-09T06:28:09;6.50;99.90
15156;DHT22;7678;50.058;8.306;2023-04-09T06:30:38;6.70;99.90
15156;DHT22;7678;50.058;8.306;2023-04-09T06:33:06;6.90;99.90
15156;DHT22;7678;50.058;8.306;2023-04-09T06:35:34;7.00;99.90
15156;DHT22;7678;50.058;8.306;2023-04-09T06:38:03;7.00;99.90
15156;DHT22;7678;50.058;8.306;2023-04-09T06:40:32;7.10;99.90
15156;DHT22;7678;50.058;8.306;2023-04-09T06:43:00;7.10;99.90
15156;DHT22;7678;50.058;8.306;2023-04-09T06:45:31;7.20;99.90
15156;DHT22;7678;50.058;8.306;2023-04-09T06:47:59;7.20;99.90
15156;DHT22;7678;50.058;8.306;2023-04-09T06:50:28;7.10;99.90
15156;DHT22;7678;50.058;8.306;2023-04-09T06:52:59;7.20;99.90
15156;DHT22;7678;50.058;8.306;2023-04-09T06:55:27;7.40;99.90
15156;DHT22;7678;50.058;8.306;2023-04-09T06:57:56;7.30;99.90
15156;DHT22;7678;50.058;8.306;2023-04-09T07:00:24;7.40;99.90
15156;DHT22;7678;50.058;8.306;2023-04-09T07:02:54;7.50;99.90
15156;DHT22;7678;50.058;8.306;2023-04-09T07:05:23;7.70;99.90
15156;DHT22;7678;50.058;8.306;2023-04-09T07:07:51;7.70;99.90
15156;DHT22;7678;50.058;8.306;2023-04-09T07:10:19;7.90;99.90
15156;DHT22;7678;50.058;8.306;2023-04-09T07:12:47;7.90;99.90
15156;DHT22;7678;50.058;8.306;2023-04-09T07:15:15;7.90;99.90
15156;DHT22;7678;50.058;8.306;2023-04-09T07:17:43;7.90;99.90
15156;DHT22;7678;50.058;8.306;2023-04-09T07:20:22;7.90;99.90
15156;DHT22;7678;50.058;8.306;2023-04-09T07:22:50;7.90;99.90
15156;DHT22;7678;50.058;8.306;2023-04-09T07:25:18;7.90;99.90
15156;DHT22;7678;50.058;8.306;2023-04-09T07:27:47;7.90;99.90
15156;DHT22;7678;50.058;8.306;2023-04-09T07:30:15;7.90;99.90
15156;DHT22;7678;50.058;8.306;2023-04-09T07:32:43;8.10;99.90
15156;DHT22;7678;50.058;8.306;2023-04-09T07:35:11;8.40;99.90
15156;DHT22;7678;50.058;8.306;2023-04-09T07:37:40;8.60;99.90
15156;DHT22;7678;50.058;8.306;2023-04-09T07:40:08;8.70;99.90
15156;DHT22;7678;50.058;8.306;2023-04-09T07:42:37;8.70;99.90
15156;DHT22;7678;50.058;8.306;2023-04-09T07:45:06;8.80;99.90
15156;DHT22;7678;50.058;8.306;2023-04-09T07:47:34;8.80;99.90
15156;DHT22;7678;50.058;8.306;2023-04-09T07:50:03;8.90;99.90
15156;DHT22;7678;50.058;8.306;2023-04-09T07:52:31;9.00;99.90
15156;DHT22;7678;50.058;8.306;2023-04-09T07:55:00;9.10;99.90
15156;DHT22;7678;50.058;8.306;2023-04-09T07:57:30;9.00;99.90
15156;DHT22;7678;50.058;8.306;2023-04-09T07:59:58;8.90;99.90
15156;DHT22;7678;50.058;8.306;2023-04-09T08:02:27;8.90;99.90
15156;DHT22;7678;50.058;8.306;2023-04-09T08:04:56;8.90;99.90
15156;DHT22;7678;50.058;8.306;2023-04-09T08:07:25;9.00;99.90
15156;DHT22;7678;50.058;8.306;2023-04-09T08:09:53;9.10;99.90
15156;DHT22;7678;50.058;8.306;2023-04-09T08:12:22;9.10;99.90
15156;DHT22;7678;50.058;8.306;2023-04-09T08:14:50;9.20;99.90
15156;DHT22;7678;50.058;8.306;2023-04-09T08:17:18;9.20;99.90
15156;DHT22;7678;50.058;8.306;2023-04-09T08:19:46;9.10;99.90
15156;DHT22;7678;50.058;8.306;2023-04-09T08:22:15;9.20;99.90
15156;DHT22;7678;50.058;8.306;2023-04-09T08:24:43;9.30;99.90
15156;DHT22;7678;50.058;8.306;2023-04-09T08:27:11;9.40;99.90
15156;DHT22;7678;50.058;8.306;2023-04-09T08:29:40;9.50;99.90
15156;DHT22;7678;50.058;8.306;2023-04-09T08:32:08;9.60;99.90
15156;DHT22;7678;50.058;8.306;2023-04-09T08:34:37;9.70;99.90
15156;DHT22;7678;50.058;8.306;2023-04-09T08:37:05;9.80;99.90
15156;DHT22;7678;50.058;8.306;2023-04-09T08:39:33;10.00;99.90
15156;DHT22;7678;50.058;8.306;2023-04-09T08:42:05;10.00;99.90
15156;DHT22;7678;50.058;8.306;2023-04-09T08:44:34;10.00;99.90
15156;DHT22;7678;50.058;8.306;2023-04-09T08:47:07;10.00;99.90
15156;DHT22;7678;50.058;8.306;2023-04-09T08:49:38;10.40;99.90
15156;DHT22;7678;50.058;8.306;2023-04-09T08:52:06;10.60;99.90
15156;DHT22;7678;50.058;8.306;2023-04-09T08:54:35;10.70;99.90
15156;DHT22;7678;50.058;8.306;2023-04-09T08:57:04;10.40;99.90
15156;DHT22;7678;50.058;8.306;2023-04-09T08:59:32;10.60;99.90
15156;DHT22;7678;50.058;8.306;2023-04-09T09:02:08;10.60;99.90
15156;DHT22;7678;50.058;8.306;2023-04-09T09:04:51;10.30;99.90
15156;DHT22;7678;50.058;8.306;2023-04-09T09:07:27;10.20;99.90
15156;DHT22;7678;50.058;8.306;2023-04-09T09:09:57;10.40;99.90
15156;DHT22;7678;50.058;8.306;2023-04-09T09:12:36;10.50;99.90
15156;DHT22;7678;50.058;8.306;2023-04-09T09:15:26;10.80;99.90
15156;DHT22;7678;50.058;8.306;2023-04-09T09:17:56;10.80;99.90
15156;DHT22;7678;50.058;8.306;2023-04-09T09:20:26;10.70;99.90
15156;DHT22;7678;50.058;8.306;2023-04-09T09:22:55;10.60;99.90
15156;DHT22;7678;50.058;8.306;2023-04-09T09:25:23;10.50;99.90
15156;DHT22;7678;50.058;8.306;2023-04-09T09:27:52;10.60;99.90
15156;DHT22;7678;50.058;8.306;2023-04-09T09:30:21;10.50;99.90
15156;DHT22;7678;50.058;8.306;2023-04-09T09:32:51;10.90;99.90
15156;DHT22;7678;50.058;8.306;2023-04-09T09:35:24;10.60;99.90
15156;DHT22;7678;50.058;8.306;2023-04-09T09:38:02;10.60;99.90
15156;DHT22;7678;50.058;8.306;2023-04-09T09:40:31;10.90;99.90
15156;DHT22;7678;50.058;8.306;2023-04-09T09:42:59;10.90;99.90
15156;DHT22;7678;50.058;8.306;2023-04-09T09:45:28;11.10;99.90
15156;DHT22;7678;50.058;8.306;2023-04-09T09:47:57;10.70;99.90
15156;DHT22;7678;50.058;8.306;2023-04-09T09:50:29;10.80;99.90
15156;DHT22;7678;50.058;8.306;2023-04-09T09:53:02;10.90;99.90
15156;DHT22;7678;50.058;8.306;2023-04-09T09:55:31;11.20;99.90
15156;DHT22;7678;50.058;8.306;2023-04-09T09:58:01;11.30;99.90
15156;DHT22;7678;50.058;8.306;2023-04-09T10:00:31;11.20;99.90
15156;DHT22;7678;50.058;8.306;2023-04-09T10:03:06;11.20;99.90
15156;DHT22;7678;50.058;8.306;2023-04-09T10:05:37;11.40;99.90
15156;DHT22;7678;50.058;8.306;2023-04-09T10:08:07;11.30;99.90
15156;DHT22;7678;50.058;8.306;2023-04-09T10:10:38;11.30;99.90
15156;DHT22;7678;50.058;8.306;2023-04-09T10:13:11;11.30;99.90
15156;DHT22;7678;50.058;8.306;2023-04-09T10:15:41;11.20;99.90
15156;DHT22;7678;50.058;8.306;2023-04-09T10:18:10;11.70;99.90
15156;DHT22;7678;50.058;8.306;2023-04-09T10:20:45;12.00;99.90
15156;DHT22;7678;50.058;8.306;2023-04-09T10:23:23;12.40;99.90
15156;DHT22;7678;50.058;8.306;2023-04-09T10:25:53;12.10;99.90
15156;DHT22;7678;50.058;8.306;2023-04-09T10:28:22;11.90;98.80
15156;DHT22;7678;50.058;8.306;2023-04-09T10:30:52;12.00;99.90
15156;DHT22;7678;50.058;8.306;2023-04-09T10:33:22;12.00;96.50
15156;DHT22;7678;50.058;8.306;2023-04-09T10:35:54;12.20;99.10
15156;DHT22;7678;50.058;8.306;2023-04-09T10:38:33;12.60;97.90
15156;DHT22;7678;50.058;8.306;2023-04-09T10:41:13;12.70;96.70
15156;DHT22;7678;50.058;8.306;2023-04-09T10:43:42;12.20;94.70
15156;DHT22;7678;50.058;8.306;2023-04-09T10:46:25;12.30;95.90
15156;DHT22;7678;50.058;8.306;2023-04-09T10:49:10;12.40;95.00
15156;DHT22;7678;50.058;8.306;2023-04-09T10:51:40;12.30;92.40
15156;DHT22;7678;50.058;8.306;2023-04-09T10:54:35;12.50;93.00
15156;DHT22;7678;50.058;8.306;2023-04-09T10:57:15;12.60;88.60
15156;DHT22;7678;50.058;8.306;2023-04-09T10:59:46;12.80;84.40
15156;DHT22;7678;50.058;8.306;2023-04-09T11:02:40;13.20;83.20
15156;DHT22;7678;50.058;8.306;2023-04-09T11:05:19;12.80;86.00
15156;DHT22;7678;50.058;8.306;2023-04-09T11:07:53;12.90;86.60
15156;DHT22;7678;50.058;8.306;2023-04-09T11:10:23;12.90;85.20
15156;DHT22;7678;50.058;8.306;2023-04-09T11:12:52;13.10;78.60
15156;DHT22;7678;50.058;8.306;2023-04-09T11:15:20;13.10;81.50
15156;DHT22;7678;50.058;8.306;2023-04-09T11:17:48;13.20;79.30
15156;DHT22;7678;50.058;8.306;2023-04-09T11:20:20;13.30;76.80
15156;DHT22;7678;50.058;8.306;2023-04-09T11:22:50;13.30;73.30
15156;DHT22;7678;50.058;8.306;2023-04-09T11:25:19;13.50;65.80
15156;DHT22;7678;50.058;8.306;2023-04-09T11:27:48;13.50;68.80
15156;DHT22;7678;50.058;8.306;2023-04-09T11:30:16;13.20;67.10
15156;DHT22;7678;50.058;8.306;2023-04-09T11:32:44;13.40;69.00
15156;DHT22;7678;50.058;8.306;2023-04-09T11:35:13;13.30;69.30
15156;DHT22;7678;50.058;8.306;2023-04-09T11:37:43;13.30;71.10
15156;DHT22;7678;50.058;8.306;2023-04-09T11:40:17;13.40;68.10
15156;DHT22;7678;50.058;8.306;2023-04-09T11:42:45;13.80;68.30
15156;DHT22;7678;50.058;8.306;2023-04-09T11:45:15;13.60;64.70
15156;DHT22;7678;50.058;8.306;2023-04-09T11:47:44;13.80;63.80
15156;DHT22;7678;50.058;8.306;2023-04-09T11:50:14;13.70;63.80
15156;DHT22;7678;50.058;8.306;2023-04-09T11:52:44;13.90;64.80
15156;DHT22;7678;50.058;8.306;2023-04-09T11:55:23;14.10;62.50
15156;DHT22;7678;50.058;8.306;2023-04-09T11:57:52;13.90;63.80
15156;DHT22;7678;50.058;8.306;2023-04-09T12:00:21;13.80;63.00
15156;DHT22;7678;50.058;8.306;2023-04-09T12:02:57;13.70;64.90
15156;DHT22;7678;50.058;8.306;2023-04-09T12:05:28;13.80;65.40
15156;DHT22;7678;50.058;8.306;2023-04-09T12:07:58;13.90;61.40
15156;DHT22;7678;50.058;8.306;2023-04-09T12:10:29;13.90;59.90
15156;DHT22;7678;50.058;8.306;2023-04-09T12:13:00;14.00;61.70
15156;DHT22;7678;50.058;8.306;2023-04-09T12:15:31;13.70;61.40
15156;DHT22;7678;50.058;8.306;2023-04-09T12:18:00;14.00;60.50
15156;DHT22;7678;50.058;8.306;2023-04-09T12:20:32;14.20;58.80
15156;DHT22;7678;50.058;8.306;2023-04-09T12:23:02;13.50;58.40
15156;DHT22;7678;50.058;8.306;2023-04-09T12:25:33;14.00;57.60
15156;DHT22;7678;50.058;8.306;2023-04-09T12:28:03;14.30;57.30
15156;DHT22;7678;50.058;8.306;2023-04-09T12:30:31;14.70;57.10
15156;DHT22;7678;50.058;8.306;2023-04-09T12:32:59;14.60;54.50
15156;DHT22;7678;50.058;8.306;2023-04-09T12:35:28;14.70;56.20
15156;DHT22;7678;50.058;8.306;2023-04-09T12:37:56;14.90;54.90
15156;DHT22;7678;50.058;8.306;2023-04-09T12:40:25;14.60;54.10
15156;DHT22;7678;50.058;8.306;2023-04-09T12:42:54;14.80;53.10
15156;DHT22;7678;50.058;8.306;2023-04-09T12:45:22;14.70;55.00
15156;DHT22;7678;50.058;8.306;2023-04-09T12:47:50;14.30;54.70
15156;DHT22;7678;50.058;8.306;2023-04-09T12:50:19;14.30;55.20
15156;DHT22;7678;50.058;8.306;2023-04-09T12:52:47;14.30;56.40
15156;DHT22;7678;50.058;8.306;2023-04-09T12:55:15;14.00;56.80
15156;DHT22;7678;50.058;8.306;2023-04-09T12:57:48;14.40;58.20
15156;DHT22;7678;50.058;8.306;2023-04-09T13:00:18;14.40;54.70
15156;DHT22;7678;50.058;8.306;2023-04-09T13:02:46;14.40;54.10
15156;DHT22;7678;50.058;8.306;2023-04-09T13:05:14;14.60;53.90
15156;DHT22;7678;50.058;8.306;2023-04-09T13:07:42;14.60;52.60
15156;DHT22;7678;50.058;8.306;2023-04-09T13:10:12;14.70;54.90
15156;DHT22;7678;50.058;8.306;2023-04-09T13:12:48;15.10;52.60
15156;DHT22;7678;50.058;8.306;2023-04-09T13:15:22;14.70;52.40
15156;DHT22;7678;50.058;8.306;2023-04-09T13:17:51;14.60;51.50
15156;DHT22;7678;50.058;8.306;2023-04-09T13:20:19;14.40;51.30
15156;DHT22;7678;50.058;8.306;2023-04-09T13:22:47;14.60;53.30
15156;DHT22;7678;50.058;8.306;2023-04-09T13:25:16;14.50;53.90
15156;DHT22;7678;50.058;8.306;2023-04-09T13:27:44;14.50;52.70
15156;DHT22;7678;50.058;8.306;2023-04-09T13:30:12;14.10;52.60
15156;DHT22;7678;50.058;8.306;2023-04-09T13:32:42;14.00;53.20
15156;DHT22;7678;50.058;8.306;2023-04-09T13:35:10;14.10;54.10
15156;DHT22;7678;50.058;8.306;2023-04-09T13:37:38;14.10;53.00
15156;DHT22;7678;50.058;8.306;2023-04-09T13:40:07;14.10;51.70
15156;DHT22;7678;50.058;8.306;2023-04-09T13:42:36;14.10;54.60
15156;DHT22;7678;50.058;8.306;2023-04-09T13:45:05;14.20;52.40
15156;DHT22;7678;50.058;8.306;2023-04-09T13:47:33;14.00;52.40
15156;DHT22;7678;50.058;8.306;2023-04-09T13:50:03;13.80;53.40
15156;DHT22;7678;50.058;8.306;2023-04-09T13:52:31;13.90;55.10
15156;DHT22;7678;50.058;8.306;2023-04-09T13:55:02;14.10;54.30
15156;DHT22;7678;50.058;8.306;2023-04-09T13:57:30;13.70;53.10
15156;DHT22;7678;50.058;8.306;2023-04-09T13:59:58;13.80;54.20
15156;DHT22;7678;50.058;8.306;2023-04-09T14:02:27;14.30;53.20
15156;DHT22;7678;50.058;8.306;2023-04-09T14:04:56;14.70;50.50
15156;DHT22;7678;50.058;8.306;2023-04-09T14:07:25;14.50;49.90
15156;DHT22;7678;50.058;8.306;2023-04-09T14:09:53;14.80;51.90
15156;DHT22;7678;50.058;8.306;2023-04-09T14:12:21;14.60;50.40
15156;DHT22;7678;50.058;8.306;2023-04-09T14:14:50;15.00;49.80
15156;DHT22;7678;50.058;8.306;2023-04-09T14:17:18;15.20;49.90
15156;DHT22;7678;50.058;8.306;2023-04-09T14:19:46;14.60;48.60
15156;DHT22;7678;50.058;8.306;2023-04-09T14:22:14;14.40;47.90
15156;DHT22;7678;50.058;8.306;2023-04-09T14:24:45;14.10;47.90
15156;DHT22;7678;50.058;8.306;2023-04-09T14:27:13;14.10;48.30
15156;DHT22;7678;50.058;8.306;2023-04-09T14:29:41;13.70;50.10
15156;DHT22;7678;50.058;8.306;2023-04-09T14:32:09;13.80;50.70
15156;DHT22;7678;50.058;8.306;2023-04-09T14:34:37;13.70;49.70
15156;DHT22;7678;50.058;8.306;2023-04-09T14:37:06;13.80;50.10
15156;DHT22;7678;50.058;8.306;2023-04-09T14:39:34;13.90;49.80
15156;DHT22;7678;50.058;8.306;2023-04-09T14:42:04;14.00;50.30
15156;DHT22;7678;50.058;8.306;2023-04-09T14:44:32;14.10;50.60
15156;DHT22;7678;50.058;8.306;2023-04-09T14:47:00;14.30;52.20
15156;DHT22;7678;50.058;8.306;2023-04-09T14:49:29;14.00;50.20
15156;DHT22;7678;50.058;8.306;2023-04-09T14:51:57;13.90;49.90
15156;DHT22;7678;50.058;8.306;2023-04-09T14:54:25;14.20;50.10
15156;DHT22;7678;50.058;8.306;2023-04-09T14:56:56;14.60;50.10
15156;DHT22;7678;50.058;8.306;2023-04-09T14:59:26;14.70;49.30
15156;DHT22;7678;50.058;8.306;2023-04-09T15:01:53;14.90;48.90
15156;DHT22;7678;50.058;8.306;2023-04-09T15:04:22;14.90;49.50
15156;DHT22;7678;50.058;8.306;2023-04-09T15:06:50;14.90;48.50
15156;DHT22;7678;50.058;8.306;2023-04-09T15:09:18;14.90;47.50
15156;DHT22;7678;50.058;8.306;2023-04-09T15:11:46;15.00;49.00
15156;DHT22;7678;50.058;8.306;2023-04-09T15:14:14;15.00;48.50
15156;DHT22;7678;50.058;8.306;2023-04-09T15:16:44;15.00;48.00
15156;DHT22;7678;50.058;8.306;2023-04-09T15:19:12;15.10;47.70
15156;DHT22;7678;50.058;8.306;2023-04-09T15:21:40;14.80;47.50
15156;DHT22;7678;50.058;8.306;2023-04-09T15:24:08;14.80;48.40
15156;DHT22;7678;50.058;8.306;2023-04-09T15:26:36;14.60;49.00
15156;DHT22;7678;50.058;8.306;2023-04-09T15:29:06;14.60;51.20
15156;DHT22;7678;50.058;8.306;2023-04-09T15:31:34;14.30;49.30
15156;DHT22;7678;50.058;8.306;2023-04-09T15:34:06;14.20;47.80
15156;DHT22;7678;50.058;8.306;2023-04-09T15:36:33;14.30;49.30
15156;DHT22;7678;50.058;8.306;2023-04-09T15:39:02;14.50;49.00
15156;DHT22;7678;50.058;8.306;2023-04-09T15:41:30;14.60;49.60
15156;DHT22;7678;50.058;8.306;2023-04-09T15:43:59;14.50;52.30
15156;DHT22;7678;50.058;8.306;2023-04-09T15:46:27;14.50;49.60
15156;DHT22;7678;50.058;8.306;2023-04-09T15:48:55;14.50;49.50
15156;DHT22;7678;50.058;8.306;2023-04-09T15:51:25;14.40;48.40
15156;DHT22;7678;50.058;8.306;2023-04-09T15:53:53;14.30;49.70
15156;DHT22;7678;50.058;8.306;2023-04-09T15:56:21;14.30;48.60
15156;DHT22;7678;50.058;8.306;2023-04-09T15:58:49;14.40;49.40
15156;DHT22;7678;50.058;8.306;2023-04-09T16:01:18;14.20;49.40
15156;DHT22;7678;50.058;8.306;2023-04-09T16:03:46;14.20;49.10
15156;DHT22;7678;50.058;8.306;2023-04-09T16:06:17;14.40;50.00
15156;DHT22;7678;50.058;8.306;2023-04-09T16:08:48;14.40;48.40
15156;DHT22;7678;50.058;8.306;2023-04-09T16:11:17;14.60;49.00